Weather observations for the past three days for
Houston Executive Airport
Metric (Imperial)
Date Time (cdt) Wind (kph) Vis. (km) Weather Sky Cond. Temperature (ºC) Relative Humidity Wind Chill (°C) Heat Index (°C) Pressure Precipitation (cm)
Air Dwpt 6 hour altimeter (cm) sea level (mb) 1 hr 3 hr 6 hr
Max. Min.
09 16:35 Calm 14.48 Fair CLR 31 23 62% 35 75.64 0.0
09 16:15 Vrbl 6 14.48 Fair CLR 31 22 59% 35 75.64 0.0
09 15:55 NE 9 14.48 Fair CLR 32 23 59% 37 75.64 0.0
09 15:35 NE 7 12.87 Fair CLR 31 22 59% 35 75.69 0.0
09 15:15 Vrbl 6 14.48 Fair CLR 31 23 62% 35 75.69 0.0
09 14:55 Vrbl 7 14.48 Fair CLR 31 23 62% 35 75.72 0.0
09 14:35 Vrbl 7 14.48 A Few Clouds FEW027 30 23 66% 34 75.72 0.0
09 14:15 NW 11 14.48 Mostly Cloudy BKN027 BKN032 31 23 62% 35 75.74 0.0
09 13:55 Calm 12.87 Partly Cloudy SCT029 29 23 70% 33 75.74 0.0
09 13:35 S 9 11.27 Fair CLR 30 23 66% 34 75.77 0.0
09 13:15 Vrbl 6 14.48 Fair CLR 30 23 66% 34 75.77 0.0
09 12:55 Vrbl 11 14.48 A Few Clouds FEW023 30 23 66% 34 75.79 0.0
09 12:35 SW 15 14.48 A Few Clouds FEW020 29 23 70% 33 75.84 0.0
09 12:15 S 11 14.48 A Few Clouds FEW017 FEW075 29 24 74% 34 75.84 0.0
09 11:55 S 9 12.87 Mostly Cloudy SCT017 SCT065 BKN075 28 24 79% 32 75.84 0.0
09 11:35 Calm 14.48 Mostly Cloudy BKN015 BKN049 BKN065 27 24 84% 30 75.84 0.0
09 11:15 Vrbl 6 12.87 Mostly Cloudy BKN014 BKN043 BKN050 26 24 89% 28 75.84 0.0
09 10:55 Calm 12.87 Overcast FEW012 BKN016 OVC050 26 24 89% 28 75.87 0.0
09 10:35 Calm 12.87 Overcast BKN012 OVC045 25 24 94% 26 75.87 0.0
09 10:15 Calm 11.27 Mostly Cloudy FEW010 BKN046 25 24 94% 26 75.84 0.0
09 09:55 SE 7 11.27 Fair CLR 25 25 100% 25 75.82 0.0
09 09:35 Calm 9.66 Fog/Mist CLR 25 24 94% 26 75.79 0.0
09 09:15 Calm 9.66 Fog/Mist CLR 25 24 94% 26 75.77 0.0
09 08:55 S 9 8.05 Fog/Mist FEW007 SCT037 24 24 100% 23 75.77 0.0
09 08:35 S 9 8.05 Fog/Mist SCT036 SCT070 24 24 100% 23 75.82 0.0
09 08:15 S 7 4.83 Fog/Mist BKN036 BKN070 24 24 100% 23 75.84 0.0
09 07:55 Calm 4.02 Fog/Mist FEW002 BKN036 24 24 100% 23 75.84 0.0
09 07:35 Calm 1.61 Fog/Mist BKN002 BKN015 24 24 100% 23 75.82 0.0
09 07:15 Calm 2.01 Fog/Mist SCT002 OVC017 24 24 100% 23 75.84 0.0
09 06:55 Calm 2.82 Fog/Mist SCT003 SCT011 OVC016 24 24 100% 23 75.84 0.0
09 06:35 N 6 4.02 Fog/Mist FEW003 SCT007 BKN012 24 24 100% 23 75.84 0.0
09 06:15 N 11 2.82 Fog/Mist OVC007 23 23 100% 75.84 0.0
09 05:55 Calm 4.83 Fog/Mist SCT007 BKN013 BKN055 24 24 100% 23 75.79 0.0
09 05:35 Calm 4.83 Fog/Mist BKN013 OVC060 24 24 100% 23 75.79 0.0
09 05:15 S 9 4.02 Fog/Mist BKN013 OVC060 24 24 100% 23 75.77 0.0
09 04:55 Calm 4.02 Fog/Mist OVC013 24 24 100% 23 75.77 0.0
09 04:35 NE 6 4.02 Fog/Mist OVC012 24 24 100% 23 75.74 0.0
09 04:15 Calm 4.83 Fog/Mist SCT007 OVC012 24 24 100% 23 75.74 0.0
09 03:55 Calm 4.83 Fog/Mist OVC007 24 24 100% 23 75.79 0.0
09 03:35 Calm 4.83 Fog/Mist OVC007 24 24 100% 23 75.79 0.0
09 03:15 Calm 4.83 Fog/Mist BKN006 OVC015 24 24 100% 23 75.79 0.0
09 02:55 Calm 4.83 Fog/Mist OVC005 24 24 100% 23 75.77 0.0
09 02:35 SE 7 4.02 Fog/Mist OVC005 24 24 100% 23 75.77 0.0
09 02:15 S 17 4.02 Fog/Mist OVC004 24 24 100% 23 75.74 0.0
09 01:55 S 9 3.22 Fog/Mist OVC004 24 24 100% 23 75.77 0.0
09 01:35 S 7 4.02 Fog/Mist OVC004 24 24 100% 23 75.79 0.0
09 01:15 SE 9 4.83 Fog/Mist OVC005 24 24 100% 23 75.82 0.0
09 00:55 SE 7 4.83 Fog/Mist OVC006 24 24 100% 23 75.82 0.0
09 00:35 S 6 4.83 Fog/Mist OVC006 24 24 100% 23 75.82 0.0
09 00:15 SE 7 4.83 Fog/Mist OVC006 24 24 100% 23 75.84 0.0
08 23:55 SE 9 4.83 Fog/Mist BKN006 OVC014 23 23 100% 75.82 0.0
08 23:35 SE 7 4.83 Fog/Mist BKN007 OVC013 24 24 100% 23 75.84 0.0
08 23:15 SE 9 4.83 Fog/Mist SCT007 BKN012 OVC029 24 24 100% 23 75.82 0.0
08 22:55 SE 6 6.44 Fog/Mist BKN007 OVC012 24 23 94% 23 75.82 0.0
08 22:35 SE 13 6.44 Fog/Mist OVC008 24 23 94% 23 75.79 0.0
08 22:15 E 11 6.44 Fog/Mist OVC009 23 23 100% 75.79 0.0
08 21:55 SE 7 4.83 Fog/Mist BKN010 OVC023 23 23 100% 75.79 0.0
08 21:35 E 9 4.83 Fog/Mist BKN010 OVC022 23 23 100% 75.77 0.0
08 21:15 E 7 4.83 Fog/Mist OVC010 23 23 100% 75.74 0.0
08 20:55 E 9 4.83 Fog/Mist OVC009 23 23 100% 75.74 0.0
08 20:35 E 6 4.83 Fog/Mist OVC010 23 23 100% 75.74 0.0
08 20:15 Calm 4.02 Fog/Mist OVC010 23 23 100% 75.74 0.0
08 19:55 E 11 4.02 Fog/Mist BKN010 OVC019 23 23 100% 75.72 0.0
08 19:35 E 9 3.22 Fog/Mist FEW012 OVC018 23 23 100% 75.72 0.0
08 19:15 E 11 3.22 Fog/Mist OVC015 23 23 100% 75.72 0.0
08 18:55 E 9 4.02 Fog/Mist FEW010 BKN015 23 23 100% 75.74 0.0
08 18:35 E 11 4.02 Fog/Mist SCT010 BKN014 23 23 100% 75.72 0.0
08 18:15 E 11 6.44 Fog/Mist OVC010 24 22 89% 24 75.74 0.0
08 17:55 SE 9 8.05 Fog/Mist OVC011 24 22 89% 24 75.74 0.0
08 17:15 E 11 12.87 Overcast OVC012 25 23 89% 26 75.74 0.0
08 16:55 E 9 14.48 Overcast OVC012 25 22 83% 26 75.74 0.0
08 16:35 E 11 12.87 Overcast OVC012 25 23 89% 26 75.74 0.0
08 16:15 E 9 12.87 Overcast OVC011 24 22 89% 24 75.77 0.0
08 15:55 SE 7 14.48 Overcast OVC011 24 22 89% 24 75.79 0.0
08 15:35 SE 9 12.87 Mostly Cloudy BKN011 BKN032 24 22 89% 24 75.82 0.0
08 15:15 E 13 12.87 Mostly Cloudy BKN010 BKN028 BKN035 24 22 89% 24 75.82 0.0
08 14:55 SE 7 9.66 Fog/Mist BKN009 BKN031 24 22 89% 24 75.84 0.0
08 14:35 E 9 9.66 Fog/Mist FEW010 FEW013 BKN031 23 21 89% 75.84 0.0
08 14:15 Vrbl 7 8.05 Fog/Mist SCT012 BKN031 23 21 89% 75.87 0.0
08 13:55 SE 6 4.02 Fog/Mist BKN011 22 21 94% 75.9 0.0
08 13:35 E 7 9.66 Fog/Mist BKN011 BKN046 OVC050 22 20 88% 75.9 0.0
08 13:15 E 11 11.27 Overcast FEW047 SCT055 OVC070 23 20 83% 75.9 0.0
08 12:55 E 13 11.27 Overcast FEW040 FEW049 OVC065 23 20 83% 75.92 0.0
08 12:35 E 9 9.66 Overcast with Haze BKN041 BKN049 OVC060 22 20 88% 75.95 0.0
08 12:15 E 11 9.66 Mostly Cloudy with Haze FEW013 SCT028 BKN045 22 20 88% 75.97 0.0
08 11:55 E 11 11.27 Overcast SCT013 BKN029 OVC036 22 19 83% 75.97 0.0
08 11:35 E 13 12.87 Overcast BKN013 OVC025 22 19 83% 76 0.0
08 11:15 E 17 11.27 Overcast SCT012 OVC027 21 19 88% 76 0.0
08 10:55 E 17 12.87 Overcast SCT012 OVC027 22 19 83% 75.97 0.0
08 10:35 E 13 14.48 Overcast OVC012 21 19 88% 76.02 0.0
08 10:15 NE 13 14.48 Overcast OVC012 21 18 83% 76.05 0.0
08 09:55 NE 17 14.48 Overcast OVC012 20 18 88% 76.02 0.0
08 09:35 NE 17 12.87 Overcast BKN011 OVC038 21 19 88% 76.05 0.0
08 09:15 NE 9 14.48 Overcast SCT011 BKN038 OVC046 21 19 88% 76.02 0.0
08 08:55 NE 9 14.48 Mostly Cloudy FEW011 SCT028 BKN048 21 19 88% 76.02 0.0
08 08:35 NE 6 14.48 Overcast BKN030 BKN034 OVC055 21 19 88% 76.02 0.0
08 08:15 NE 9 14.48 Overcast BKN033 OVC042 21 19 88% 76.02 0.0
08 07:55 E 9 14.48 Overcast OVC046 20 19 94% 76.02 0.0
08 07:35 E 9 14.48 Mostly Cloudy FEW011 BKN049 20 18 88% 76.02 0.0
08 07:15 NE 9 12.87 Overcast OVC012 20 19 94% 76.02 0.0
08 06:55 E 9 8.05 Fog/Mist OVC013 20 18 88% 76.05 0.0
08 06:35 N 11 16.09 Overcast OVC013 20 18 88% 76.1 0.0
08 06:15 NE 7 16.09 Overcast OVC013 20 18 88% 76.02 0.0
08 05:55 SE 11 16.09 Overcast BKN017 OVC028 20 18 88% 76 0.0
08 05:35 E 13 14.48 Overcast OVC017 20 17 83% 76 0.0
08 05:15 NE 13 16.09 Overcast OVC017 20 17 83% 76.02 0.0
08 04:55 N 9 16.09 Overcast OVC018 20 17 83% 76.02 0.0
08 04:35 NE 17 16.09 Overcast OVC018 20 17 83% 76.02 0.0
08 04:15 NE 13 16.09 Overcast OVC017 20 17 83% 76 0.0
08 03:55 E 11 16.09 Overcast OVC019 20 17 83% 75.97 0.0
08 03:35 E 11 16.09 Overcast OVC020 20 17 83% 76 0.0
08 03:15 NE 9 16.09 Overcast OVC020 20 17 83% 76.02 0.0
08 02:55 NE 9 16.09 Overcast OVC022 20 17 83% 76.02 0.0
08 02:35 NE 11 16.09 Overcast OVC024 20 17 83% 76.05 0.0
08 02:15 N 13 16.09 Overcast OVC026 20 17 83% 76.07 0.0
08 01:55 NE 9 16.09 Overcast OVC026 20 18 88% 76.05 0.0
08 01:35 N 9 16.09 Overcast OVC027 20 18 88% 76.07 0.0
08 01:15 NE 7 16.09 Overcast BKN028 BKN040 OVC046 20 17 83% 76.05 0.0
08 00:55 E 7 16.09 Overcast BKN026 BKN041 OVC046 20 17 83% 76.05 0.0
08 00:35 NE 6 16.09 Overcast OVC024 20 17 83% 76.05 0.0
08 00:15 E 7 16.09 Overcast OVC025 20 17 83% 76.05 0.0
07 23:55 NE 9 16.09 Overcast BKN027 OVC033 21 16 73% 76.07 0.0
07 23:35 NE 11 16.09 Overcast FEW029 OVC035 21 16 73% 76.05 0.0
07 23:15 NE 11 16.09 Overcast OVC034 22 16 69% 76.1 0.0
07 22:55 NE 11 16.09 Overcast BKN031 OVC038 21 16 73% 76.07 0.0
07 22:35 E 13 G 24 16.09 Overcast OVC039 21 17 78% 76.02 0.0
07 22:15 E 11 16.09 Overcast OVC038 20 17 83% 76.05 0.0
07 21:55 NE 9 16.09 Overcast OVC035 21 17 78% 76.1 0.0
07 21:35 N 9 16.09 Overcast BKN035 BKN042 OVC050 21 17 78% 76.1 0.0
07 21:15 NE 11 16.09 Mostly Cloudy FEW042 BKN050 BKN060 21 18 83% 76.07 0.0
07 20:55 N 9 16.09 Overcast OVC050 22 18 78% 76.1 0.0
07 20:35 NE 6 16.09 Overcast OVC050 22 18 78% 76.07 0.0
07 20:15 N 9 16.09 Overcast FEW045 OVC055 23 18 74% 76.07 0.0
07 19:55 NE 7 16.09 Overcast OVC043 23 18 74% 76.07 0.0
07 19:35 NE 9 16.09 Overcast OVC042 24 18 69% 25 76.07 0.0
07 19:15 N 15 16.09 Overcast OVC041 24 18 69% 25 76.07 0.0
07 18:55 N 13 16.09 Overcast OVC041 24 18 69% 25 76.07 0.0
07 18:35 N 17 16.09 Overcast OVC041 24 18 69% 25 76.1 0.0
07 18:15 N 15 16.09 Partly Cloudy SCT041 24 18 69% 25 76.07 0.0
07 17:55 N 19 16.09 Fair CLR 25 18 65% 26 76.05 0.0
07 17:35 N 17 16.09 Partly Cloudy SCT045 25 18 65% 26 76.05 0.0
07 17:15 NE 17 16.09 Overcast OVC043 25 18 65% 26 76.02 0.0
07 16:55 NE 15 16.09 Overcast OVC042 25 18 65% 26 76.05 0.0
07 16:35 NE 17 16.09 Mostly Cloudy BKN042 26 18 61% 27 76.07 0.0
07 16:15 NE 17 14.48 Overcast OVC041 25 18 65% 26 76.1 0.0
07 15:15 NE 15 16.09 A Few Clouds FEW042 25 18 65% 26 76.12 0.0
07 14:55 NE 17 16.09 Fair CLR 24 18 69% 25 76.12 0.0
07 14:35 NE 13 G 24 14.48 Partly Cloudy SCT044 24 17 65% 25 76.12 0.0
07 14:15 NE 17 G 28 16.09 Overcast OVC043 24 17 65% 25 76.17 0.0
07 13:55 NE 17 16.09 Overcast SCT032 BKN038 OVC044 23 17 69% 76.2 0.0
07 13:35 N 19 14.48 Mostly Cloudy BKN033 23 17 69% 76.23 0.0
07 13:15 N 20 16.09 Overcast OVC031 21 17 78% 76.23 0.0
07 12:55 NE 22 16.09 Overcast OVC028 21 16 73% 76.25 0.0
07 12:35 N 19 14.48 Overcast OVC029 20 16 78% 76.25 0.0
07 12:15 N 15 G 24 14.48 Overcast FEW018 OVC030 20 16 78% 76.3 0.0
07 11:55 NE 19 16.09 Overcast BKN018 BKN029 OVC035 20 16 78% 76.3 0.0
07 11:35 NE 19 14.48 Overcast BKN016 BKN021 OVC035 20 16 78% 76.3 0.0
07 11:15 NE 17 14.48 Overcast OVC015 20 16 78% 76.28 0.0
07 10:55 NE 19 12.87 Overcast OVC013 19 15 78% 76.25 0.0
07 10:35 NE 22 14.48 Overcast OVC012 18 16 88% 76.25 0.0
07 10:15 NE 20 12.87 Overcast OVC011 18 15 83% 76.28 0.0
07 09:55 N 17 11.27 Overcast OVC010 17 16 94% 76.28 0.0
07 09:35 N 17 12.87 Overcast OVC012 18 16 88% 76.3 0.0
07 09:15 NE 26 12.87 Overcast SCT013 BKN020 OVC028 18 16 88% 76.23 0.0
07 08:55 NE 31 12.87 Overcast BKN013 BKN019 OVC027 18 16 88% 76.17 0.0
07 08:35 NE 24 G 35 14.48 Overcast BKN013 OVC018 18 16 88% 76.23 0.0
07 08:15 NE 24 11.27 Overcast OVC012 18 16 88% 76.25 0.0
07 07:55 N 20 11.27 Overcast OVC011 18 16 88% 76.25 0.0
07 07:35 N 24 9.66 Fog/Mist OVC010 18 17 94% 76.23 0.0
07 07:15 N 19 9.66 Fog/Mist OVC009 18 17 94% 76.17 0.0
07 06:55 N 22 11.27 Overcast OVC009 18 17 94% 76.15 0.0
07 06:35 N 17 11.27 Overcast OVC011 18 17 94% 76.12 0.0
07 06:15 N 13 11.27 Overcast OVC013 18 17 94% 76.12 0.0
07 05:55 N 11 11.27 Overcast SCT013 OVC018 18 17 94% 76.1 0.0
07 05:35 N 11 11.27 Overcast OVC017 19 17 88% 76.1 0.0
07 05:15 N 13 12.87 Overcast OVC018 19 17 88% 76.07 0.0
07 04:55 N 9 12.87 Overcast OVC018 19 17 88% 76.05 0.0
07 04:35 N 15 12.87 Overcast OVC019 19 17 88% 76.05 0.0
07 04:15 NE 15 12.87 Overcast OVC019 18 17 94% 76.02 0.0
07 03:55 NE 15 12.87 Overcast OVC019 18 17 94% 76.02 0.0
07 03:35 NE 11 14.48 Overcast OVC018 18 17 94% 76.05 0.0
07 03:15 N 15 14.48 Overcast BKN016 OVC021 18 17 94% 76.05 0.0
07 02:55 N 17 14.48 Overcast OVC021 18 17 94% 76.05 0.0
07 02:35 NE 17 14.48 Overcast OVC020 19 16 83% 76.02 0.0
07 02:15 N 19 14.48 Overcast OVC020 19 16 83% 76.07 0.0
07 01:55 N 20 G 30 14.48 Overcast OVC022 19 16 83% 76.07 0.0
07 01:35 N 15 G 28 12.87 Overcast OVC022 19 17 88% 76.07 0.0
07 01:15 N 22 11.27 Overcast OVC022 19 17 88% 76.05 0.0
07 00:55 N 17 11.27 Overcast OVC022 19 17 88% 76.05 0.0
07 00:35 N 13 11.27 Overcast BKN022 OVC028 19 17 88% 76.07 0.0
07 00:15 N 19 11.27 Overcast OVC027 19 17 88% 76.02 0.0
06 23:55 N 19 12.87 Overcast OVC026 20 17 83% 76.05 0.0
06 23:35 N 13 G 24 14.48 Overcast OVC024 20 17 83% 76.05 0.0
06 23:15 N 19 14.48 Overcast OVC023 20 18 88% 76.05 0.0
06 22:55 N 11 G 26 16.09 Overcast OVC023 20 17 83% 76.02 0.0
06 22:35 N 17 16.09 Overcast OVC023 21 17 78% 76.02 0.0
06 22:15 N 19 G 30 14.48 Overcast OVC023 21 18 83% 76 0.0
06 21:55 N 15 16.09 Overcast OVC023 21 18 83% 75.97 0.0
06 21:35 N 13 16.09 Overcast OVC023 22 18 78% 75.95 0.0
06 21:15 N 15 16.09 Overcast OVC024 22 18 78% 75.92 0.0
06 20:55 N 13 16.09 Overcast OVC023 22 19 83% 75.87 0.0
06 20:35 N 17 14.48 Overcast OVC023 22 19 83% 75.87 0.0
06 20:15 N 15 G 24 12.87 Overcast OVC022 23 19 78% 75.84 0.0
06 19:55 N 20 G 30 9.66 Overcast with Haze BKN022 OVC030 23 20 83% 75.79 0.0
06 19:35 N 17 9.66 Mostly Cloudy with Haze SCT024 SCT030 BKN043 24 21 83% 24 75.77 0.0
06 19:15 N 17 11.27 Fair CLR 24 21 83% 24 75.74 0.0
06 18:55 N 17 G 28 11.27 A Few Clouds FEW029 24 21 83% 24 75.72 0.0
06 18:35 N 24 4.02 A Few Clouds with Haze FEW029 FEW040 28 24 79% 32 75.69 0.0
06 18:15 N 9 4.83 A Few Clouds with Haze FEW043 FEW049 29 25 79% 35 75.69 0.0
06 17:55 NW 7 4.83 Partly Cloudy with Haze SCT048 30 25 75% 36 75.67 0.0
06 17:35 NW 7 4.83 Mostly Cloudy with Haze FEW039 BKN048 BKN080 30 25 75% 36 75.67 0.0
06 17:15 Vrbl 6 4.83 Mostly Cloudy with Haze SCT028 SCT034 BKN042 30 25 75% 36 75.67 0.0
06 16:55 W 11 6.44 Mostly Cloudy with Haze BKN027 BKN038 BKN047 31 25 70% 38 75.64 0.0
Date Time (cdt) Wind (kph) Vis. (km) Weather Sky Cond. Air Dwpt Max. Min. Relative Humidity Wind Chill (°C) Heat Index (°C) altimeter (cm) sea level (mb) 1 hr 3 hr 6 hr
6 hour
Temperature (ºC) Pressure Precipitation (cm)